首页
METAR-TAF:

METAR-TAF

机场 :

Penn Yan Airport

Penn Yan, 紐約州, 美国

纬度: 42-38-35N, 经度: 077-02-58W, 海拔: 275米

当前天气观测

该预报发布于4小时和48分钟前的11:31 UTC
风速4节,风向西南
温度 -2°C
湿度 86%
气压 1022 hPa
能見度: 14.5公里
多云层高于2000英尺
阴天层高于3800英尺

METAR: KPEO 171131Z AUTO 22004KT 9SM BKN020 OVC038 M02/M04 A3019 RMK AO2 T10221044

时间: 11:19 (16:19 UTC)


TAF: 丢失

超过4000个机场的气象观测和天气预报(METAR&TAF报告)。

可查询的气象台以黄色和红色小点在地图上表示。

将鼠标移到小点上方,可查看气象台名称。

然后点击查看天气观测和预报。

如需切换地图:点击带黑十字的绿色按钮放大地图;点击带横线的绿色按钮缩小地图;或者点击绿色箭头查看邻近地区的地图。


METAR-TAF: